Terminal Aerodrome Forecast
Issued by NWS

Home | Current Version | Previous Version | Text Only | Print | Product List | Glossary On
Versions: 1 2 3 4 5 6 7 8 9 10 11 12
647
FTUS42 KGSP 180539
TAFGMU
TAF
KGMU 180539Z 1806/1906 22003KT P6SM SCT150
     FM181100 22005KT P6SM SCT018 BKN025 OVC150
     FM181400 22010G17KT P6SM BKN025 OVC035
     FM182200 21011G18KT P6SM BKN035 PROB30 1900/1903 4SM -SHRA
      OVC025
     FM190300 21016G24KT 5SM -SHRA OVC020=

USA.gov is the U.S. government's official web portal to all federal, state and local government web resources and services.